createdAt,value
2023-01-27T00:00:14.591Z,34.10
2023-01-27T00:03:16.290Z,28.50
2023-01-27T00:06:19.204Z,34.20
2023-01-27T00:09:20.216Z,32.50
2023-01-27T00:12:50.218Z,30.10
2023-01-27T00:15:52.254Z,33.10
2023-01-27T00:18:54.396Z,34.40
2023-01-27T00:22:13.223Z,35.60
2023-01-27T00:25:14.356Z,33.40
2023-01-27T00:28:14.274Z,32.20
2023-01-27T00:31:34.399Z,28.10
2023-01-27T00:34:36.538Z,30.90
2023-01-27T00:37:36.243Z,29.90
2023-01-27T00:40:36.254Z,30.40
2023-01-27T00:43:37.267Z,28.10
2023-01-27T00:46:41.652Z,33.80
2023-01-27T00:49:42.258Z,34.70
2023-01-27T00:52:45.287Z,36.30
2023-01-27T00:55:46.292Z,34.10
2023-01-27T00:58:46.322Z,35.10
2023-01-27T01:01:51.297Z,34.50
2023-01-27T01:04:52.300Z,40.40
2023-01-27T01:07:53.299Z,39.60
2023-01-27T01:10:56.277Z,39.60
2023-01-27T01:13:56.769Z,37.10
2023-01-27T01:16:58.333Z,36.70
2023-01-27T01:19:58.322Z,37.00
2023-01-27T01:22:59.371Z,41.50
2023-01-27T01:26:06.449Z,38.80
2023-01-27T01:29:08.488Z,40.40
2023-01-27T01:35:11.579Z,39.70
2023-01-27T01:38:14.650Z,47.10
2023-01-27T01:41:15.361Z,41.60
2023-01-27T01:44:34.321Z,41.20
2023-01-27T01:47:39.404Z,41.40
2023-01-27T01:50:41.661Z,35.80
2023-01-27T01:53:57.827Z,43.30
2023-01-27T01:57:05.445Z,46.60
2023-01-27T02:00:12.951Z,47.10
2023-01-27T02:03:13.365Z,49.80
2023-01-27T02:06:15.646Z,41.90
2023-01-27T02:09:19.371Z,50.40
2023-01-27T02:12:20.474Z,45.30
2023-01-27T02:15:21.426Z,44.60
2023-01-27T02:18:23.433Z,47.30
2023-01-27T02:21:25.828Z,43.20
2023-01-27T02:24:26.512Z,50.20
2023-01-27T02:27:28.539Z,41.50
2023-01-27T02:30:31.909Z,52.10
2023-01-27T02:33:32.445Z,44.20
2023-01-27T02:36:38.437Z,48.20
2023-01-27T02:39:41.469Z,49.30
2023-01-27T02:42:41.451Z,51.20
2023-01-27T02:45:43.460Z,50.90
2023-01-27T02:48:46.367Z,47.40
2023-01-27T02:51:46.578Z,49.40
2023-01-27T02:54:47.471Z,49.00
2023-01-27T02:57:50.516Z,57.70
2023-01-27T03:01:05.662Z,50.60
2023-01-27T03:04:05.563Z,49.00
2023-01-27T03:07:08.495Z,55.90
2023-01-27T03:10:12.785Z,49.80
2023-01-27T03:16:37.509Z,59.90
2023-01-27T03:19:37.552Z,48.10
2023-01-27T03:22:38.571Z,54.60
2023-01-27T03:25:38.757Z,51.50
2023-01-27T03:28:39.509Z,53.80
2023-01-27T03:31:44.581Z,58.60
2023-01-27T03:34:46.581Z,65.90
2023-01-27T03:38:11.538Z,62.40
2023-01-27T03:41:36.531Z,57.60
2023-01-27T03:44:54.634Z,61.30
2023-01-27T03:47:54.674Z,62.90
2023-01-27T03:50:59.644Z,65.00
2023-01-27T03:53:59.570Z,70.80
2023-01-27T03:57:00.598Z,66.50
2023-01-27T04:00:00.585Z,73.00
2023-01-27T04:03:25.713Z,72.60
2023-01-27T04:06:51.852Z,62.20
2023-01-27T04:09:52.602Z,64.30
2023-01-27T04:12:52.594Z,70.50
2023-01-27T04:15:53.811Z,67.10
2023-01-27T04:18:54.652Z,70.70
2023-01-27T04:21:55.623Z,65.70
2023-01-27T04:24:59.634Z,67.70
2023-01-27T04:28:00.681Z,64.70
2023-01-27T04:31:00.744Z,68.80
2023-01-27T04:34:04.316Z,65.00
2023-01-27T04:37:04.922Z,60.20
2023-01-27T04:40:04.618Z,67.80
2023-01-27T04:43:06.642Z,59.10
2023-01-27T04:46:06.913Z,66.20
2023-01-27T04:49:06.677Z,60.20
2023-01-27T04:52:06.663Z,67.10
2023-01-27T04:55:10.679Z,65.50
2023-01-27T04:58:12.789Z,63.90
2023-01-27T05:01:12.693Z,66.40
2023-01-27T05:04:13.031Z,60.70
2023-01-27T05:07:13.766Z,60.30
2023-01-27T05:10:13.902Z,64.50
2023-01-27T05:13:14.990Z,64.70
2023-01-27T05:16:29.871Z,72.50
2023-01-27T05:19:29.667Z,62.80
2023-01-27T05:22:29.739Z,66.30
2023-01-27T05:25:29.726Z,64.50
2023-01-27T05:28:29.767Z,58.80
2023-01-27T05:31:40.203Z,58.70
2023-01-27T05:34:43.761Z,62.50
2023-01-27T05:37:43.715Z,64.10
2023-01-27T05:40:43.763Z,75.30
2023-01-27T05:43:45.798Z,66.20
2023-01-27T05:46:45.799Z,62.30
2023-01-27T05:49:45.733Z,68.10
2023-01-27T05:52:47.765Z,62.00
2023-01-27T05:55:47.781Z,63.60
2023-01-27T05:58:48.805Z,61.40
2023-01-27T06:01:49.795Z,65.80
2023-01-27T06:04:53.951Z,68.50
2023-01-27T06:07:57.596Z,62.80
2023-01-27T06:10:58.915Z,75.60
2023-01-27T06:14:01.788Z,65.90
2023-01-27T06:17:03.002Z,67.00
2023-01-27T06:20:03.848Z,71.80
2023-01-27T06:23:05.255Z,62.30
2023-01-27T06:26:06.844Z,71.10
2023-01-27T06:29:09.822Z,69.10
2023-01-27T06:32:09.936Z,67.40
2023-01-27T06:35:12.054Z,68.50
2023-01-27T06:38:13.052Z,66.20
2023-01-27T06:41:13.056Z,71.10
2023-01-27T06:44:12.915Z,73.80
2023-01-27T06:47:12.845Z,78.10
2023-01-27T06:50:15.244Z,76.50
2023-01-27T06:53:23.441Z,72.20
2023-01-27T06:56:29.256Z,71.60
2023-01-27T06:59:50.028Z,71.20
2023-01-27T07:02:50.033Z,68.10
2023-01-27T07:05:54.106Z,74.20
2023-01-27T07:08:59.949Z,78.70
2023-01-27T07:12:03.132Z,72.00
2023-01-27T07:15:04.914Z,68.90
2023-01-27T07:18:08.137Z,72.40
2023-01-27T07:21:08.550Z,71.30
2023-01-27T07:24:08.969Z,62.90
2023-01-27T07:27:11.913Z,71.10
2023-01-27T07:30:14.409Z,55.30
2023-01-27T07:33:23.324Z,68.00
2023-01-27T07:36:24.944Z,65.20
2023-01-27T07:39:24.903Z,64.90
2023-01-27T07:42:26.066Z,67.30
2023-01-27T07:45:27.168Z,58.70
2023-01-27T07:48:29.247Z,59.60
2023-01-27T07:51:28.991Z,63.20
2023-01-27T07:54:28.965Z,61.80
2023-01-27T07:57:30.972Z,65.40
2023-01-27T08:00:34.944Z,57.20
2023-01-27T08:03:39.065Z,64.80
2023-01-27T08:06:42.968Z,54.80
2023-01-27T08:09:44.988Z,60.90
2023-01-27T08:12:46.084Z,46.60
2023-01-27T08:15:47.146Z,61.80
2023-01-27T08:18:48.014Z,70.10
2023-01-27T08:21:49.997Z,58.30
2023-01-27T08:24:51.025Z,58.60
2023-01-27T08:27:53.092Z,65.30
2023-01-27T08:31:01.621Z,62.20
2023-01-27T08:34:05.042Z,59.80
2023-01-27T08:37:06.061Z,61.70
2023-01-27T08:40:06.093Z,66.50
2023-01-27T08:43:08.125Z,71.00
2023-01-27T08:46:11.254Z,77.30
2023-01-27T08:49:12.107Z,70.10
2023-01-27T08:55:17.278Z,70.40
2023-01-27T08:58:17.059Z,65.70
2023-01-27T09:01:17.290Z,72.30
2023-01-27T09:04:19.501Z,69.50
2023-01-27T09:07:22.603Z,65.50
2023-01-27T09:10:23.341Z,62.10
2023-01-27T09:13:24.307Z,74.30
2023-01-27T09:16:24.130Z,68.20
2023-01-27T09:19:26.103Z,70.40
2023-01-27T09:22:26.102Z,82.20
2023-01-27T09:25:28.106Z,74.80
2023-01-27T09:28:28.152Z,75.10
2023-01-27T09:31:29.463Z,66.30
2023-01-27T09:34:29.125Z,56.80
2023-01-27T09:37:30.285Z,65.70
2023-01-27T09:41:02.143Z,64.90
2023-01-27T09:44:09.154Z,70.00
2023-01-27T09:47:20.186Z,63.70
2023-01-27T09:50:59.144Z,69.20
2023-01-27T09:54:11.240Z,72.30
2023-01-27T09:57:21.140Z,66.10
2023-01-27T10:00:51.301Z,73.30
2023-01-27T10:04:05.178Z,68.00
2023-01-27T10:07:23.257Z,66.20
2023-01-27T10:10:30.158Z,66.00
2023-01-27T10:13:41.228Z,68.10
2023-01-27T10:16:58.188Z,64.90
2023-01-27T10:20:12.565Z,62.10
2023-01-27T10:23:45.240Z,70.70
2023-01-27T10:26:56.234Z,63.70
2023-01-27T10:30:33.397Z,63.60
2023-01-27T10:36:49.442Z,56.70
2023-01-27T10:40:06.245Z,53.10
2023-01-27T10:43:36.191Z,52.80
2023-01-27T10:46:48.313Z,52.30
2023-01-27T10:49:57.290Z,47.90
2023-01-27T10:53:19.267Z,48.70
2023-01-27T10:56:31.245Z,49.20
2023-01-27T11:00:18.319Z,49.30
2023-01-27T11:03:27.276Z,48.70
2023-01-27T11:06:47.278Z,52.30
2023-01-27T11:09:52.283Z,44.80
2023-01-27T11:12:55.366Z,52.80
2023-01-27T11:15:55.297Z,45.00
2023-01-27T11:18:55.344Z,50.30
2023-01-27T11:22:08.230Z,47.80
2023-01-27T11:25:45.344Z,49.30
2023-01-27T11:29:05.317Z,51.70
2023-01-27T11:32:16.441Z,50.50
2023-01-27T11:35:17.341Z,52.50
2023-01-27T11:38:18.485Z,45.00
2023-01-27T11:41:19.341Z,46.40
2023-01-27T11:44:21.381Z,40.70
2023-01-27T11:47:32.799Z,44.10
2023-01-27T11:50:33.452Z,41.70
2023-01-27T11:53:42.432Z,45.20
2023-01-27T11:56:42.341Z,46.00
2023-01-27T11:59:51.495Z,40.60
2023-01-27T12:03:01.426Z,39.80
2023-01-27T12:06:07.431Z,42.00
2023-01-27T12:09:07.486Z,41.40
2023-01-27T12:12:27.363Z,40.00
2023-01-27T12:15:31.401Z,40.20
2023-01-27T12:18:34.504Z,39.40
2023-01-27T12:21:35.655Z,38.30
2023-01-27T12:24:40.433Z,35.60
2023-01-27T12:27:41.374Z,37.40
2023-01-27T12:30:48.481Z,35.10
2023-01-27T12:33:54.505Z,34.90
2023-01-27T12:36:56.506Z,28.10
2023-01-27T12:39:59.414Z,31.20
2023-01-27T12:43:15.561Z,28.10
2023-01-27T12:46:26.522Z,29.40
2023-01-27T12:49:27.525Z,30.60
2023-01-27T12:52:32.462Z,30.10
2023-01-27T12:56:13.452Z,27.50
2023-01-27T12:59:15.546Z,24.50
2023-01-27T13:02:34.518Z,25.40
2023-01-27T14:20:00.168Z,32.80
2023-01-27T14:23:16.025Z,30.50
2023-01-27T14:26:22.150Z,36.30
2023-01-27T14:29:46.081Z,29.10
2023-01-27T14:33:14.087Z,38.70
2023-01-27T14:36:32.140Z,33.70
2023-01-27T14:40:02.121Z,31.20
2023-01-27T14:43:18.239Z,29.30
2023-01-27T14:46:35.160Z,30.30
2023-01-27T14:50:12.134Z,31.70
2023-01-27T14:53:16.311Z,30.10
2023-01-27T14:56:34.113Z,35.80
2023-01-27T14:59:56.159Z,32.30
2023-01-27T15:03:14.186Z,34.90
2023-01-27T15:06:39.886Z,36.00
2023-01-27T15:09:53.318Z,30.90
2023-01-27T15:13:01.286Z,28.00
2023-01-27T15:16:22.192Z,30.50
2023-01-27T15:19:47.171Z,26.30
2023-01-27T15:22:56.200Z,23.40
2023-01-27T15:26:07.222Z,30.10
2023-01-27T15:29:08.157Z,29.60
2023-01-27T15:32:36.414Z,29.00
2023-01-27T15:35:50.224Z,28.60
2023-01-27T15:38:53.216Z,30.60
2023-01-27T15:42:07.214Z,27.10
2023-01-27T15:45:13.429Z,30.80
2023-01-27T15:48:24.237Z,33.10
2023-01-27T15:51:32.233Z,31.30
2023-01-27T15:54:41.266Z,31.40
2023-01-27T15:57:45.222Z,31.20
2023-01-27T16:00:50.270Z,30.60
2023-01-27T16:03:55.349Z,32.20
2023-01-27T16:07:08.259Z,31.50
2023-01-27T16:10:14.628Z,32.90
2023-01-27T16:13:34.301Z,30.20
2023-01-27T16:16:35.312Z,30.60
2023-01-27T16:20:06.231Z,29.70
2023-01-27T16:23:11.499Z,25.80
2023-01-27T16:26:21.304Z,29.00
2023-01-27T16:29:48.316Z,27.10
2023-01-27T16:32:54.387Z,29.20
2023-01-27T16:36:01.870Z,31.10
2023-01-27T16:39:07.723Z,34.80
2023-01-27T16:42:11.427Z,31.90
2023-01-27T16:45:17.291Z,28.50
2023-01-27T16:48:43.350Z,29.10
2023-01-27T16:51:43.333Z,30.20
2023-01-27T16:54:50.376Z,31.30
2023-01-27T16:57:56.337Z,31.00
2023-01-27T17:00:58.386Z,23.70
2023-01-27T17:04:07.609Z,30.10
2023-01-27T17:07:22.399Z,29.60
2023-01-27T17:10:34.660Z,31.10
2023-01-27T17:13:42.346Z,30.60
2023-01-27T17:16:50.414Z,31.80
2023-01-27T17:19:51.768Z,29.80
2023-01-27T17:23:00.374Z,31.60
2023-01-27T17:26:01.447Z,29.80
2023-01-27T17:29:02.433Z,31.40
2023-01-27T17:32:02.426Z,32.00
2023-01-27T17:35:11.737Z,34.40
2023-01-27T17:38:50.544Z,31.40
2023-01-27T17:41:51.442Z,27.70
2023-01-27T17:44:51.412Z,32.70
2023-01-27T17:47:51.953Z,30.30
2023-01-27T17:50:53.732Z,29.70
2023-01-27T17:53:55.643Z,29.70
2023-01-27T17:56:56.690Z,31.70
2023-01-27T17:59:59.453Z,36.20
2023-01-27T18:03:17.454Z,36.00
2023-01-27T18:06:17.500Z,30.80
2023-01-27T18:09:34.126Z,31.30
2023-01-27T18:13:03.924Z,30.90
2023-01-27T18:16:15.957Z,28.40
2023-01-27T18:19:31.551Z,28.30
2023-01-27T18:22:34.418Z,33.20
2023-01-27T18:25:38.024Z,29.10
2023-01-27T18:28:38.484Z,32.80
2023-01-27T18:31:49.303Z,35.10
2023-01-27T18:35:01.906Z,33.10
2023-01-27T18:38:13.503Z,33.00
2023-01-27T18:41:26.989Z,33.30
2023-01-27T18:44:33.722Z,29.10
2023-01-27T18:47:43.531Z,32.70
2023-01-27T18:50:43.725Z,29.70
2023-01-27T18:53:43.589Z,33.20
2023-01-27T18:56:44.650Z,33.30
2023-01-27T18:59:47.985Z,30.20
2023-01-27T19:02:51.858Z,29.40
2023-01-27T19:05:54.575Z,27.00
2023-01-27T19:08:58.917Z,28.70
2023-01-27T19:12:03.101Z,29.60
2023-01-27T19:15:07.665Z,30.30
2023-01-27T19:18:10.840Z,26.60
2023-01-27T19:21:18.817Z,31.70
2023-01-27T19:24:18.811Z,32.20
2023-01-27T19:27:25.677Z,27.80
2023-01-27T19:30:43.171Z,30.10
2023-01-27T19:33:45.587Z,31.40
2023-01-27T19:36:55.593Z,27.50
2023-01-27T19:39:57.856Z,30.20
2023-01-27T19:42:58.606Z,32.70
2023-01-27T19:46:03.683Z,33.70
2023-01-27T19:49:04.965Z,28.30
2023-01-27T19:52:05.099Z,29.80
2023-01-27T19:55:05.661Z,27.30
2023-01-27T19:58:06.605Z,30.30
2023-01-27T20:01:07.645Z,30.50
2023-01-27T20:04:08.702Z,27.90
2023-01-27T20:07:10.656Z,23.60
2023-01-27T20:10:14.334Z,29.90
2023-01-27T20:13:17.874Z,31.00
2023-01-27T20:16:20.712Z,29.10
2023-01-27T20:19:25.991Z,32.90
2023-01-27T20:22:28.851Z,26.30
2023-01-27T20:25:30.619Z,28.50
2023-01-27T20:31:40.871Z,32.20
2023-01-27T20:34:49.399Z,32.30
2023-01-27T20:37:51.881Z,27.90
2023-01-27T20:40:52.053Z,30.10
2023-01-27T20:43:53.855Z,33.20
2023-01-27T20:46:56.477Z,30.30
2023-01-27T20:50:04.311Z,32.50
2023-01-27T20:53:09.009Z,34.00
2023-01-27T20:56:13.379Z,33.30
2023-01-27T20:59:17.426Z,30.40
2023-01-27T21:02:22.136Z,30.60
2023-01-27T21:08:50.811Z,32.90
2023-01-27T21:12:13.891Z,30.60
2023-01-27T21:15:42.874Z,34.40
2023-01-27T21:19:19.550Z,31.30
2023-01-27T21:22:36.459Z,30.70
2023-01-27T21:29:45.138Z,33.70
2023-01-27T21:33:02.752Z,37.30
2023-01-27T21:36:10.992Z,39.30
2023-01-27T21:39:21.744Z,35.80
2023-01-27T21:42:45.836Z,38.50
2023-01-27T21:45:47.989Z,39.10
2023-01-27T21:48:53.145Z,37.50
2023-01-27T21:51:57.002Z,36.00
2023-01-27T21:54:57.787Z,35.00
2023-01-27T21:58:00.790Z,35.90
2023-01-27T22:01:04.851Z,38.60
2023-01-27T22:04:07.147Z,37.60
2023-01-27T22:07:07.910Z,36.60
2023-01-27T22:10:10.781Z,39.40
2023-01-27T22:13:11.825Z,31.80
2023-01-27T22:16:12.858Z,33.70
2023-01-27T22:19:13.785Z,38.20
2023-01-27T22:25:38.782Z,36.50
2023-01-27T22:28:42.636Z,33.60
2023-01-27T22:31:51.343Z,31.70
2023-01-27T22:34:53.848Z,33.50
2023-01-27T22:37:55.838Z,36.80
2023-01-27T22:41:15.166Z,34.30
2023-01-27T22:44:25.269Z,31.60
2023-01-27T22:47:26.981Z,39.10
2023-01-27T22:50:30.898Z,33.70
2023-01-27T22:53:48.920Z,35.50
2023-01-27T22:56:56.828Z,35.20
2023-01-27T23:00:00.882Z,36.30
2023-01-27T23:03:04.208Z,35.70
2023-01-27T23:06:18.948Z,37.30
2023-01-27T23:09:27.892Z,37.60
2023-01-27T23:12:29.932Z,32.40
2023-01-27T23:15:32.908Z,41.90
2023-01-27T23:18:35.954Z,34.10
2023-01-27T23:21:40.223Z,39.70
2023-01-27T23:24:42.030Z,37.50
2023-01-27T23:27:45.068Z,35.40
2023-01-27T23:30:48.903Z,36.40
2023-01-27T23:33:58.145Z,37.80
2023-01-27T23:37:01.913Z,39.70
2023-01-27T23:40:02.535Z,37.50
2023-01-27T23:43:06.405Z,36.40
2023-01-27T23:46:08.008Z,36.70
2023-01-27T23:49:13.961Z,31.90
2023-01-27T23:52:13.976Z,29.30
2023-01-27T23:55:14.256Z,31.10
2023-01-27T23:58:16.000Z,35.10
